Terminal Aerodrome Forecast
Issued by NWS Birmingham, AL

Home | Current Version | Previous Version | Text Only | Print | Product List | Glossary On
Versions: 1 2 3 4 5 6 7 8 9 10 11 12 13 14 15 16 17 18 19 20 21 22 23 24 25 26 27 28 29 30 31 32 33 34 35 36 37 38 39 40 41 42 43 44 45 46 47 48 49 50
000
FTUS44 KBMX 242138 AAA
TAFBHM
TAF AMD
KBHM 242138Z 2422/2518 25015G21KT P6SM SCT035 BKN250
     FM250000 26006KT P6SM BKN250
     FM250800 29003KT 5SM BR BKN025
     FM251300 30007KT P6SM SCT250=

USA.gov is the U.S. government's official web portal to all federal, state and local government web resources and services.